Time;durP1;ratioP1;P1;durP2;ratioP2;P2;SDS_P1;SDS_P2;PMS_P1;PMS_P2;Temp;Humidity;BMP_temperature;BMP_pressure;BME280_temperature;BME280_humidity;BME280_pressure;Samples;Min_cycle;Max_cycle;Signal;HPM_P1;HPM_P2
2023/07/15 00:01:58;;;;;;;7.82;3.13;;;;;;;18.47;100.00;97285.16;5083021;28;20097;-85
2023/07/15 00:04:42;;;;;;;7.97;2.90;;;;;;;18.36;100.00;97285.31;5084791;28;20046;-83
2023/07/15 00:07:27;;;;;;;9.00;3.35;;;;;;;18.24;100.00;97282.31;5080696;28;20095;-83
2023/07/15 00:10:11;;;;;;;12.73;3.75;;;;;;;18.21;100.00;97290.84;5072347;28;20524;-84
2023/07/15 00:12:55;;;;;;;6.30;2.97;;;;;;;18.11;100.00;97283.81;5082804;28;20063;-84
2023/07/15 00:15:40;;;;;;;9.40;3.00;;;;;;;18.02;100.00;97283.69;5077285;28;20066;-84
2023/07/15 00:18:25;;;;;;;11.93;3.50;;;;;;;17.95;100.00;97280.56;5079029;28;20102;-83
2023/07/15 00:21:22;;;;;;;8.68;2.90;;;;;;;18.05;100.00;97269.06;5080161;28;20048;-83
2023/07/15 00:24:07;;;;;;;11.35;3.88;;;;;;;17.93;100.00;97272.09;5079955;28;20047;-82
2023/07/15 00:26:52;;;;;;;6.68;3.25;;;;;;;17.93;100.00;97270.22;5078036;28;20176;-82
2023/07/15 00:29:36;;;;;;;6.82;3.05;;;;;;;17.91;100.00;97264.41;5081088;28;20082;-82
2023/07/15 00:32:21;;;;;;;8.85;3.33;;;;;;;17.97;100.00;97273.09;5075696;28;20074;-82
2023/07/15 00:35:18;;;;;;;10.05;3.33;;;;;;;17.96;100.00;97269.66;5076744;28;20120;-82
2023/07/15 00:38:02;;;;;;;15.00;3.53;;;;;;;17.87;100.00;97276.69;5077651;28;20040;-83
2023/07/15 00:40:48;;;;;;;10.80;3.25;;;;;;;17.81;100.00;97273.31;5076753;28;20046;-82
2023/07/15 00:43:58;;;;;;;11.73;3.75;;;;;;;17.89;100.00;97279.06;5077274;28;20113;-83
2023/07/15 00:47:05;;;;;;;10.02;3.70;;;;;;;17.94;100.00;97277.13;5078429;28;20039;-83
2023/07/15 00:49:50;;;;;;;12.00;3.85;;;;;;;18.05;100.00;97275.13;5082824;28;20043;-83
2023/07/15 00:52:34;;;;;;;7.93;3.80;;;;;;;18.04;100.00;97273.56;5081142;28;20067;-82
2023/07/15 00:55:18;;;;;;;12.18;3.70;;;;;;;18.01;100.00;97283.94;5077073;28;20059;-84
2023/07/15 00:58:03;;;;;;;10.23;4.50;;;;;;;17.78;100.00;97271.22;5080338;28;20114;-83
2023/07/15 01:00:47;;;;;;;6.50;3.75;;;;;;;17.92;100.00;97273.19;5074758;28;20039;-84
2023/07/15 01:03:32;;;;;;;9.85;4.13;;;;;;;17.94;100.00;97271.81;5074586;28;20097;-83
2023/07/15 01:06:16;;;;;;;13.35;4.20;;;;;;;17.88;100.00;97269.50;5077114;28;20377;-82
2023/07/15 01:09:07;;;;;;;5.93;3.97;;;;;;;17.93;100.00;97262.25;5075793;28;20090;-82
2023/07/15 01:11:51;;;;;;;9.15;4.03;;;;;;;17.92;100.00;97260.69;5082190;28;20509;-82
2023/07/15 01:14:36;;;;;;;11.90;4.13;;;;;;;17.87;100.00;97255.44;5073377;28;20556;-81
2023/07/15 01:17:20;;;;;;;10.70;4.88;;;;;;;17.75;100.00;97253.22;5075553;28;20069;-81
2023/07/15 01:20:06;;;;;;;13.88;4.95;;;;;;;17.78;100.00;97268.56;5076301;28;20051;-81
2023/07/15 01:22:50;;;;;;;11.85;5.13;;;;;;;17.85;100.00;97270.88;5079075;28;20123;-80
2023/07/15 01:25:34;;;;;;;10.77;4.90;;;;;;;17.90;100.00;97268.16;5082036;28;20138;-80
2023/07/15 01:28:18;;;;;;;12.13;5.38;;;;;;;17.83;100.00;97263.19;5078885;28;20040;-80
2023/07/15 01:31:03;;;;;;;19.85;6.28;;;;;;;17.95;100.00;97256.69;5077653;28;20039;-80
2023/07/15 01:33:47;;;;;;;15.90;6.40;;;;;;;18.12;100.00;97259.66;5076200;28;20383;-80
2023/07/15 01:36:31;;;;;;;12.55;6.38;;;;;;;18.02;100.00;97248.41;5078591;28;20035;-80
2023/07/15 01:39:16;;;;;;;11.48;6.75;;;;;;;17.96;100.00;97247.63;5080148;28;20039;-81
2023/07/15 01:41:59;;;;;;;;;;;;;;;17.93;100.00;97245.56;5082728;28;20121;-81
2023/07/15 01:44:44;;;;;;;15.25;7.05;;;;;;;17.85;100.00;97242.47;5073074;28;20009;-81
2023/07/15 01:47:27;;;;;;;18.17;7.75;;;;;;;17.82;100.00;97239.59;5074675;28;20090;-81
2023/07/15 01:50:11;;;;;;;18.63;7.97;;;;;;;17.87;100.00;97238.72;5078363;28;20470;-81
2023/07/15 01:52:55;;;;;;;11.55;7.32;;;;;;;17.76;100.00;97230.91;5075251;28;20047;-82
2023/07/15 01:55:39;;;;;;;22.75;8.50;;;;;;;17.69;100.00;97222.53;5080930;28;20086;-80
2023/07/15 01:58:23;;;;;;;18.10;8.02;;;;;;;17.86;100.00;97224.69;5085104;28;20170;-81
2023/07/15 02:01:08;;;;;;;14.50;8.00;;;;;;;17.88;100.00;97225.19;5078007;28;20187;-81
2023/07/15 02:03:52;;;;;;;15.82;7.65;;;;;;;17.84;100.00;97217.00;5082517;28;21872;-81
2023/07/15 02:06:36;;;;;;;18.70;7.95;;;;;;;17.90;100.00;97219.59;5080103;28;21841;-80
2023/07/15 02:09:20;;;;;;;15.10;7.68;;;;;;;17.85;100.00;97223.88;5076391;28;20052;-80
2023/07/15 02:12:04;;;;;;;18.48;8.32;;;;;;;17.74;100.00;97233.06;5075518;28;20131;-80
2023/07/15 02:14:48;;;;;;;15.38;8.18;;;;;;;17.82;100.00;97215.72;5078915;28;20404;-80
2023/07/15 02:17:32;;;;;;;18.73;8.65;;;;;;;17.88;100.00;97221.72;5081758;28;20405;-80
2023/07/15 02:20:17;;;;;;;20.13;9.63;;;;;;;17.84;100.00;97222.31;5079218;28;20436;-80
2023/07/15 02:23:01;;;;;;;24.48;10.77;;;;;;;18.01;100.00;97210.41;5084572;28;20098;-80
2023/07/15 02:25:45;;;;;;;20.08;10.48;;;;;;;18.12;100.00;97219.81;5080490;28;20067;-80
2023/07/15 02:28:29;;;;;;;16.27;10.35;;;;;;;18.18;100.00;97225.06;5078649;28;20461;-79
2023/07/15 02:31:14;;;;;;;17.33;10.52;;;;;;;18.37;100.00;97217.03;5084092;28;20508;-80
2023/07/15 02:33:58;;;;;;;22.52;11.35;;;;;;;18.36;100.00;97216.28;5080802;28;20128;-80
2023/07/15 02:36:42;;;;;;;26.67;11.15;;;;;;;18.49;100.00;97224.56;5078676;28;20058;-79
2023/07/15 02:39:26;;;;;;;21.52;11.98;;;;;;;18.51;100.00;97212.56;5081599;28;20039;-80
2023/07/15 02:42:10;;;;;;;19.65;10.85;;;;;;;18.59;100.00;97213.75;5080210;28;20390;-80
2023/07/15 02:44:55;;;;;;;24.92;11.10;;;;;;;18.60;100.00;97210.03;5078225;28;20042;-81
2023/07/15 02:47:39;;;;;;;21.77;11.98;;;;;;;18.60;100.00;97219.88;5082525;28;20051;-81
2023/07/15 02:50:23;;;;;;;20.65;11.15;;;;;;;18.80;100.00;97216.06;5082767;28;20071;-81
2023/07/15 02:53:07;;;;;;;20.27;10.15;;;;;;;18.92;100.00;97210.25;5107875;27;20047;-81
2023/07/15 02:55:51;;;;;;;17.85;12.10;;;;;;;18.82;100.00;97208.59;5083458;28;20085;-80
2023/07/15 02:58:35;;;;;;;20.92;11.35;;;;;;;18.98;100.00;97201.94;5077979;28;20044;-80
2023/07/15 03:01:20;;;;;;;18.60;11.10;;;;;;;18.98;100.00;97199.28;5075221;28;20089;-81
2023/07/15 03:04:04;;;;;;;22.80;11.50;;;;;;;18.90;100.00;97201.81;5079106;28;20089;-81
2023/07/15 03:06:48;;;;;;;21.88;11.60;;;;;;;19.01;100.00;97202.44;5083721;28;20198;-81
2023/07/15 03:09:32;;;;;;;23.33;12.88;;;;;;;18.97;100.00;97207.53;5080103;28;20463;-80
2023/07/15 03:12:17;;;;;;;23.88;10.73;;;;;;;19.03;100.00;97206.38;5076711;28;20115;-81
2023/07/15 03:15:00;;;;;;;21.45;11.30;;;;;;;18.96;100.00;97201.41;5078835;28;20097;-80
2023/07/15 03:17:44;;;;;;;17.05;9.52;;;;;;;19.01;100.00;97202.44;5081311;28;20093;-81
2023/07/15 03:20:29;;;;;;;16.33;8.88;;;;;;;18.88;100.00;97194.13;5080853;28;20109;-80
2023/07/15 03:23:13;;;;;;;18.15;8.63;;;;;;;18.90;100.00;97191.16;5080085;28;20124;-80
2023/07/15 03:25:57;;;;;;;;;;;;;;;18.92;100.00;97184.47;5079190;28;20047;-80
2023/07/15 03:28:41;;;;;;;12.60;8.13;;;;;;;18.82;100.00;97166.06;5076713;28;20327;-80
2023/07/15 03:31:25;;;;;;;17.20;7.88;;;;;;;18.93;100.00;97167.44;5083090;28;20046;-80
2023/07/15 03:34:10;;;;;;;18.63;7.57;;;;;;;18.98;100.00;97156.75;5080763;28;20803;-82
2023/07/15 03:36:53;;;;;;;17.70;8.13;;;;;;;19.03;100.00;97157.72;5077846;28;20097;-81
2023/07/15 03:39:38;;;;;;;14.93;8.00;;;;;;;19.06;100.00;97155.25;5080266;28;20040;-81
2023/07/15 03:42:21;;;;;;;15.60;7.47;;;;;;;19.00;100.00;97158.31;5081317;28;20043;-81
2023/07/15 03:45:06;;;;;;;15.88;7.32;;;;;;;19.16;100.00;97154.25;5079528;28;20101;-81
2023/07/15 03:47:50;;;;;;;15.93;7.10;;;;;;;19.02;100.00;97153.47;5080498;28;20043;-81
2023/07/15 03:50:35;;;;;;;14.95;7.35;;;;;;;18.93;100.00;97156.00;5083224;28;20516;-81
2023/07/15 03:53:19;;;;;;;13.63;6.90;;;;;;;19.04;100.00;97149.47;5080713;28;21977;-80
2023/07/15 03:56:03;;;;;;;16.40;8.15;;;;;;;18.84;100.00;97129.34;5082811;28;20082;-80
2023/07/15 03:58:47;;;;;;;17.10;9.20;;;;;;;18.88;100.00;97135.66;5079773;28;20043;-80
2023/07/15 04:01:34;;;;;;;18.83;10.13;;;;;;;19.02;100.00;97134.88;5076477;28;20125;-80
2023/07/15 04:04:18;;;;;;;14.50;10.32;;;;;;;19.02;100.00;97130.34;5076216;28;20039;-80
2023/07/15 04:07:02;;;;;;;16.83;10.57;;;;;;;19.08;100.00;97128.38;5079858;28;20054;-80
2023/07/15 04:09:47;;;;;;;14.50;9.63;;;;;;;19.00;100.00;97127.22;5076249;28;20097;-80
2023/07/15 04:12:31;;;;;;;16.63;9.02;;;;;;;19.07;100.00;97118.84;5080717;28;20043;-80
2023/07/15 04:15:15;;;;;;;14.35;8.80;;;;;;;19.19;100.00;97128.97;5081715;28;20539;-80
2023/07/15 04:17:59;;;;;;;13.60;8.50;;;;;;;19.24;100.00;97132.28;5079272;28;20046;-80
2023/07/15 04:20:43;;;;;;;16.15;7.82;;;;;;;19.22;100.00;97118.50;5082081;28;20042;-80
2023/07/15 04:23:26;;;;;;;17.95;8.00;;;;;;;19.31;100.00;97115.16;5075307;28;20063;-80
2023/07/15 04:26:11;;;;;;;16.77;7.18;;;;;;;19.32;100.00;97111.41;5082163;28;20504;-81
2023/07/15 04:28:56;;;;;;;16.90;7.53;;;;;;;19.20;100.00;97110.03;5076166;28;20056;-80
2023/07/15 04:31:42;;;;;;;12.07;7.05;;;;;;;18.75;100.00;97102.66;5082089;28;20070;-79
2023/07/15 04:34:26;;;;;;;18.48;7.63;;;;;;;18.95;100.00;97109.44;5082167;28;20051;-79
2023/07/15 04:37:11;;;;;;;15.68;6.43;;;;;;;19.06;100.00;97109.25;5084109;28;20082;-80
2023/07/15 04:39:55;;;;;;;14.88;5.85;;;;;;;19.06;100.00;97107.41;5076976;28;20074;-79
2023/07/15 04:42:39;;;;;;;12.25;6.70;;;;;;;19.19;100.00;97113.78;5076265;28;20108;-79
2023/07/15 04:45:23;;;;;;;10.18;6.10;;;;;;;19.19;100.00;97105.81;5075693;28;20398;-79
2023/07/15 04:48:08;;;;;;;18.20;5.95;;;;;;;19.38;100.00;97110.19;5081024;28;20520;-79
2023/07/15 04:50:52;;;;;;;14.35;5.95;;;;;;;19.35;100.00;97110.78;5078947;28;20093;-79
2023/07/15 04:53:43;;;;;;;19.42;6.50;;;;;;;19.54;100.00;97110.63;5079770;28;20051;-79
2023/07/15 04:56:27;;;;;;;11.98;5.72;;;;;;;19.62;100.00;97111.78;5073937;28;20531;-79
2023/07/15 04:59:11;;;;;;;11.30;5.30;;;;;;;19.54;100.00;97107.97;5079495;28;20090;-79
2023/07/15 05:01:55;;;;;;;14.93;5.25;;;;;;;19.61;100.00;97112.88;5076689;28;20048;-79
2023/07/15 05:04:39;;;;;;;11.18;5.40;;;;;;;19.60;100.00;97105.97;5076185;28;20043;-81
2023/07/15 05:07:23;;;;;;;17.20;5.78;;;;;;;19.38;100.00;97110.19;5079311;28;20113;-80
2023/07/15 05:10:08;;;;;;;13.52;5.05;;;;;;;19.42;100.00;97105.84;5082201;28;20124;-82
2023/07/15 05:12:52;;;;;;;10.38;5.15;;;;;;;19.46;100.00;97103.38;5076078;28;20047;-80
2023/07/15 05:15:36;;;;;;;11.95;5.50;;;;;;;19.60;100.00;97111.31;5077360;28;20039;-79
2023/07/15 05:18:20;;;;;;;15.90;5.75;;;;;;;19.65;100.00;97111.19;5078380;28;20036;-79
2023/07/15 05:21:04;;;;;;;15.65;5.28;;;;;;;19.67;100.00;97112.47;5078827;28;20047;-79
2023/07/15 05:23:48;;;;;;;12.30;5.88;;;;;;;19.68;100.00;97103.38;5076467;28;20100;-79
2023/07/15 05:26:32;;;;;;;12.95;5.45;;;;;;;19.88;100.00;97108.53;5075466;28;20051;-79
2023/07/15 05:29:16;;;;;;;12.02;5.18;;;;;;;20.04;100.00;97103.66;5075729;28;20199;-81
2023/07/15 05:32:00;;;;;;;15.88;6.22;;;;;;;19.79;100.00;97095.94;5081057;28;20095;-82
2023/07/15 05:34:44;;;;;;;10.52;5.63;;;;;;;19.99;100.00;97107.22;5076758;28;20055;-82
2023/07/15 05:37:28;;;;;;;11.63;5.65;;;;;;;20.04;100.00;97103.66;5075785;28;20530;-82
2023/07/15 05:40:12;;;;;;;17.33;5.35;;;;;;;20.02;100.00;97106.63;5077645;28;20508;-83
2023/07/15 05:42:56;;;;;;;14.80;5.30;;;;;;;20.11;100.00;97109.31;5077968;28;20083;-82
2023/07/15 05:45:40;;;;;;;13.73;5.18;;;;;;;19.94;100.00;97102.03;5077803;28;20094;-81
2023/07/15 05:48:24;;;;;;;11.55;4.75;;;;;;;19.93;100.00;97100.47;5079780;28;20465;-82
2023/07/15 05:51:11;;;;;;;14.13;5.20;;;;;;;19.57;100.00;97106.59;5083425;28;20406;-82
2023/07/15 05:53:55;;;;;;;11.68;4.40;;;;;;;19.86;100.00;97102.75;5075763;28;20122;-82
2023/07/15 05:56:39;;;;;;;12.85;5.78;;;;;;;19.96;100.00;97102.50;5078400;28;20067;-79
2023/07/15 05:59:23;;;;;;;16.27;4.88;;;;;;;19.73;100.00;97094.50;5078629;28;20128;-80
2023/07/15 06:02:07;;;;;;;9.55;5.53;;;;;;;19.77;100.00;97100.03;5076517;28;20043;-81
2023/07/15 06:04:51;;;;;;;12.90;5.10;;;;;;;19.70;100.00;97092.44;5077314;28;20044;-81
2023/07/15 06:07:35;;;;;;;14.10;5.53;;;;;;;19.73;100.00;97097.16;5068986;28;20047;-80
2023/07/15 06:10:19;;;;;;;14.60;5.28;;;;;;;19.55;100.00;97091.72;5074461;28;20098;-80
2023/07/15 06:13:03;;;;;;;14.90;5.07;;;;;;;19.47;100.00;97097.75;5077438;28;20410;-81
2023/07/15 06:15:50;;;;;;;13.60;4.95;;;;;;;19.78;100.00;97099.69;5074157;28;20039;-80
2023/07/15 06:18:34;;;;;;;15.38;5.22;;;;;;;19.68;100.00;97095.41;5075009;28;20047;-80
2023/07/15 06:21:18;;;;;;;17.42;5.72;;;;;;;19.70;100.00;97095.13;5072296;28;20093;-81
2023/07/15 06:24:03;;;;;;;13.50;5.20;;;;;;;19.75;100.00;97080.88;5079348;28;20166;-82
2023/07/15 06:26:47;;;;;;;13.00;4.97;;;;;;;19.83;100.00;97086.25;5078633;28;20123;-82
2023/07/15 06:29:31;;;;;;;16.17;5.50;;;;;;;19.81;100.00;97083.13;5072125;28;20043;-81
2023/07/15 06:32:16;;;;;;;8.30;4.50;;;;;;;20.00;100.00;97082.16;5077659;28;20070;-83
2023/07/15 06:34:59;;;;;;;20.20;6.05;;;;;;;19.99;100.00;97083.25;5071926;28;20051;-82
2023/07/15 06:37:48;;;;;;;18.02;6.03;;;;;;;19.95;100.00;97084.97;5073487;28;20039;-81
2023/07/15 06:40:32;;;;;;;12.93;5.95;;;;;;;19.93;100.00;97079.94;5073564;28;20047;-83
2023/07/15 06:43:16;;;;;;;10.32;5.50;;;;;;;19.84;100.00;97079.06;5074596;28;20116;-80
2023/07/15 06:46:00;;;;;;;15.93;5.80;;;;;;;20.03;100.00;97086.88;5079122;28;20047;-79
2023/07/15 06:48:45;;;;;;;16.75;5.53;;;;;;;20.17;100.00;97075.38;5079453;28;20093;-82
2023/07/15 06:51:29;;;;;;;16.27;5.28;;;;;;;20.35;100.00;97074.34;5076503;28;20452;-82
2023/07/15 06:54:13;;;;;;;16.67;5.63;;;;;;;20.40;100.00;97071.56;5080093;28;20401;-79
2023/07/15 06:56:57;;;;;;;14.13;4.85;;;;;;;20.55;100.00;97074.91;5078357;28;20055;-80
2023/07/15 06:59:41;;;;;;;10.70;5.07;;;;;;;20.72;100.00;97078.72;5076905;28;20493;-79
2023/07/15 07:02:25;;;;;;;11.77;5.40;;;;;;;20.86;100.00;97078.63;5082032;28;20051;-80
2023/07/15 07:05:09;;;;;;;14.38;5.47;;;;;;;20.63;100.00;97070.69;5073854;28;20048;-79
2023/07/15 07:07:54;;;;;;;11.82;4.80;;;;;;;20.96;100.00;97068.44;5080336;28;20098;-78
2023/07/15 07:10:38;;;;;;;10.85;4.93;;;;;;;20.88;100.00;97061.22;5076446;28;20034;-78
2023/07/15 07:13:22;;;;;;;11.98;5.05;;;;;;;20.95;100.00;97066.88;5077729;28;20035;-86
2023/07/15 07:16:07;;;;;;;12.02;5.25;;;;;;;20.87;100.00;97058.84;5074918;28;20039;-81
2023/07/15 07:18:51;;;;;;;9.38;4.90;;;;;;;20.82;100.00;97055.25;5081992;28;20043;-80
2023/07/15 07:21:35;;;;;;;13.43;4.72;;;;;;;20.49;100.00;97055.59;5081927;28;20437;-79
2023/07/15 07:24:19;;;;;;;13.48;4.72;;;;;;;20.56;100.00;97055.16;5080689;28;20071;-82
2023/07/15 07:27:03;;;;;;;10.52;5.00;;;;;;;20.49;100.00;97041.50;5076013;28;20144;-82
2023/07/15 07:29:47;;;;;;;13.50;5.38;;;;;;;20.44;100.00;97053.06;5079917;28;20123;-82
2023/07/15 07:32:31;;;;;;;20.42;4.88;;;;;;;20.69;100.00;97046.25;5077170;28;20505;-81
2023/07/15 07:35:17;;;;;;;12.50;5.38;;;;;;;20.68;100.00;97055.34;5079159;28;20112;-81
2023/07/15 07:38:01;;;;;;;17.02;5.03;;;;;;;20.95;100.00;97063.44;5074580;28;20098;-81
2023/07/15 07:40:46;;;;;;;15.82;5.40;;;;;;;21.19;100.00;97044.31;5082370;28;20082;-82
2023/07/15 07:43:35;;;;;;;15.32;5.00;;;;;;;21.29;100.00;97053.09;5076092;28;20047;-81
2023/07/15 07:46:20;;;;;;;12.40;5.50;;;;;;;21.63;100.00;97048.84;5078501;28;20512;-82
2023/07/15 07:49:04;;;;;;;12.63;4.78;;;;;;;21.97;100.00;97049.91;5078674;28;20100;-80
2023/07/15 07:51:48;;;;;;;12.32;4.82;;;;;;;21.95;100.00;97046.75;5077372;28;20441;-81
2023/07/15 07:54:33;;;;;;;13.07;4.60;;;;;;;22.14;100.00;97050.94;5074103;28;20038;-79
2023/07/15 07:57:17;;;;;;;16.55;5.00;;;;;;;22.39;100.00;97034.03;5078272;28;20046;-79
2023/07/15 08:00:01;;;;;;;13.15;4.22;;;;;;;22.73;100.00;97034.22;5069633;28;20125;-80
2023/07/15 08:02:45;;;;;;;12.45;5.00;;;;;;;22.59;100.00;97025.63;5074647;28;20539;-79
2023/07/15 08:05:40;;;;;;;10.20;3.67;;;;;;;22.88;100.00;97011.44;5080017;28;20104;-80
2023/07/15 08:08:24;;;;;;;9.02;3.78;;;;;;;22.61;100.00;97024.22;5075581;28;20040;-79
2023/07/15 08:11:08;;;;;;;11.57;4.15;;;;;;;22.75;100.00;97026.63;5077640;28;20051;-79
2023/07/15 08:13:53;;;;;;;14.73;3.97;;;;;;;22.50;100.00;97009.63;5075610;28;20038;-80
2023/07/15 08:16:38;;;;;;;13.20;3.42;;;;;;;22.49;100.00;97014.19;5072606;28;20070;-80
2023/07/15 08:19:22;;;;;;;9.90;3.70;;;;;;;22.66;100.00;97017.88;5073272;28;20092;-80
2023/07/15 08:22:06;;;;;;;11.00;3.90;;;;;;;23.41;100.00;97020.97;5080029;28;20113;-83
2023/07/15 08:24:50;;;;;;;6.90;3.35;;;;;;;23.89;100.00;97013.41;5075990;28;20087;-87
2023/07/15 08:27:34;;;;;;;9.90;3.70;;;;;;;24.16;100.00;97003.19;5078737;28;20046;-84
2023/07/15 08:30:19;;;;;;;9.52;3.67;;;;;;;23.92;100.00;97010.06;5079190;28;20044;-90
2023/07/15 08:33:04;;;;;;;10.50;3.33;;;;;;;23.71;100.00;97007.47;5082012;28;20091;-87
2023/07/15 08:35:49;;;;;;;7.20;3.60;;;;;;;23.00;100.00;97007.28;5085562;28;20043;-87
2023/07/15 08:38:33;;;;;;;8.85;3.90;;;;;;;22.45;100.00;96988.41;5076272;28;20418;-87
2023/07/15 08:41:22;;;;;;;11.68;4.15;;;;;;;22.39;100.00;97001.94;5075340;28;20401;-89
2023/07/15 08:44:14;;;;;;;7.32;3.50;;;;;;;22.53;100.00;97006.31;5079928;28;20054;-87
2023/07/15 08:46:58;;;;;;;13.85;4.32;;;;;;;22.64;100.00;96990.69;5083050;28;20089;-87
2023/07/15 08:49:45;;;;;;;14.40;3.97;;;;;;;22.86;100.00;96989.59;5079020;28;20162;-88
2023/07/15 08:52:29;;;;;;;12.48;4.28;;;;;;;22.89;100.00;96980.91;5082824;28;20513;-90
2023/07/15 08:55:14;;;;;;;12.07;4.15;;;;;;;23.42;100.00;96975.16;5080582;28;20122;-89
2023/07/15 08:57:59;;;;;;;6.72;3.05;;;;;;;24.02;100.00;96988.25;5084543;28;20138;-89
2023/07/15 09:00:44;;;;;;;7.13;3.38;;;;;;;24.01;100.00;96969.78;5078093;28;20082;-87
2023/07/15 09:03:28;;;;;;;6.50;3.10;;;;;;;23.84;100.00;96982.25;5076706;28;20120;-90
2023/07/15 09:06:16;;;;;;;7.72;3.38;;;;;;;24.08;100.00;96984.22;5075983;28;20178;-87
2023/07/15 09:09:00;;;;;;;10.43;3.55;;;;;;;24.48;100.00;96979.28;5078776;28;20516;-84
2023/07/15 09:11:44;;;;;;;7.85;3.45;;;;;;;24.52;100.00;96978.28;5078688;28;20036;-83
2023/07/15 09:14:28;;;;;;;10.63;3.33;;;;;;;24.59;99.36;96974.25;5078963;28;20044;-83
2023/07/15 09:17:20;;;;;;;6.07;3.20;;;;;;;25.35;99.18;96969.09;5083973;28;20127;-83
2023/07/15 09:20:18;;;;;;;7.40;3.10;;;;;;;25.67;95.68;96971.88;5078856;28;20039;-83
2023/07/15 09:23:02;;;;;;;5.50;2.70;;;;;;;25.20;95.07;96985.94;5080166;28;20508;-82
2023/07/15 09:25:53;;;;;;;9.50;3.42;;;;;;;25.36;93.63;96986.03;5082790;28;20062;-83
2023/07/15 09:28:39;;;;;;;8.98;3.50;;;;;;;25.24;93.07;96987.63;5079376;28;20039;-82
2023/07/15 09:31:26;;;;;;;7.35;3.35;;;;;;;24.37;95.50;96995.06;5079598;28;20059;-82
2023/07/15 09:34:11;;;;;;;6.78;3.17;;;;;;;24.38;94.31;96986.69;5079084;28;20050;-83
2023/07/15 09:36:55;;;;;;;5.60;2.60;;;;;;;23.68;94.25;96982.13;5080174;28;20043;-83
2023/07/15 09:39:39;;;;;;;12.35;3.80;;;;;;;23.59;94.11;96997.50;5079274;28;20047;-82
2023/07/15 09:42:26;;;;;;;7.13;2.85;;;;;;;23.84;93.84;97006.38;5080831;28;20067;-81
2023/07/15 09:45:10;;;;;;;2.78;1.60;;;;;;;24.03;89.91;96986.31;5084998;28;20089;-84
2023/07/15 09:47:54;;;;;;;2.63;1.77;;;;;;;23.76;89.79;96991.94;5078067;28;20070;-84
2023/07/15 09:50:40;;;;;;;3.63;1.67;;;;;;;23.07;89.03;97002.19;5079043;28;20044;-84
2023/07/15 09:53:25;;;;;;;2.83;1.60;;;;;;;22.47;93.03;97003.03;5080503;28;20051;-84
2023/07/15 09:56:10;;;;;;;4.45;1.67;;;;;;;24.29;100.00;97012.81;5083035;28;20051;-86
2023/07/15 09:58:58;;;;;;;2.83;1.42;;;;;;;23.33;100.00;97004.69;5078591;28;20088;-84
2023/07/15 10:02:17;;;;;;;1.83;1.40;;;;;;;22.58;100.00;97000.78;5080544;28;20046;-85
2023/07/15 10:05:05;;;;;;;6.03;2.03;;;;;;;22.73;100.00;96987.94;5082463;28;20146;-85
2023/07/15 10:07:51;;;;;;;8.75;2.50;;;;;;;23.15;100.00;96979.16;5077160;28;20051;-84
2023/07/15 10:10:35;;;;;;;5.20;2.70;;;;;;;22.93;100.00;96995.19;5077467;28;20102;-84
2023/07/15 10:13:20;;;;;;;8.25;3.00;;;;;;;22.78;100.00;96991.22;5082637;28;20036;-85
2023/07/15 10:16:05;;;;;;;5.65;3.03;;;;;;;23.03;100.00;96993.25;5075847;28;20106;-85
2023/07/15 10:18:49;;;;;;;7.78;3.15;;;;;;;23.12;100.00;96980.56;5086233;28;20074;-85
2023/07/15 10:21:33;;;;;;;7.80;3.13;;;;;;;23.62;100.00;96976.19;5080901;28;20044;-85
2023/07/15 10:24:17;;;;;;;8.88;4.10;;;;;;;23.70;100.00;96963.81;5086711;28;20042;-85
2023/07/15 10:27:05;;;;;;;10.15;3.20;;;;;;;23.95;100.00;96974.56;5086410;28;20417;-84
2023/07/15 10:30:18;;;;;;;6.00;3.40;;;;;;;24.30;100.00;96978.75;5083249;28;20130;-84
2023/07/15 10:33:05;;;;;;;5.80;3.08;;;;;;;24.21;100.00;96981.56;5081664;28;20046;-85
2023/07/15 10:35:51;;;;;;;5.85;3.42;;;;;;;24.88;100.00;96967.84;5085103;28;20072;-84
2023/07/15 10:38:36;;;;;;;5.82;2.90;;;;;;;24.65;100.00;96959.47;5085034;28;20059;-84
2023/07/15 10:41:20;;;;;;;7.35;2.40;;;;;;;24.56;100.00;96953.47;5080199;28;20039;-85
2023/07/15 10:44:17;;;;;;;5.15;2.70;;;;;;;23.99;100.00;96959.41;5078261;28;20054;-84
2023/07/15 10:47:03;;;;;;;6.72;3.10;;;;;;;23.76;100.00;96942.97;5081229;28;20043;-84
2023/07/15 10:49:48;;;;;;;6.78;2.78;;;;;;;23.65;100.00;96942.63;5082842;28;20035;-85
2023/07/15 10:52:33;;;;;;;9.02;3.17;;;;;;;23.67;100.00;96940.41;5095963;28;20584;-84
2023/07/15 10:55:17;;;;;;;4.63;3.13;;;;;;;24.25;100.00;96940.31;5087964;28;20588;-84
2023/07/15 10:58:07;;;;;;;8.45;3.20;;;;;;;24.18;100.00;96920.59;5081168;28;20043;-84
2023/07/15 11:00:56;;;;;;;4.97;3.70;;;;;;;23.96;100.00;96930.56;5081483;28;20079;-83
2023/07/15 11:03:42;;;;;;;7.45;3.33;;;;;;;24.41;100.00;96928.16;5081800;28;20423;-83
2023/07/15 11:06:27;;;;;;;8.15;3.17;;;;;;;24.62;100.00;96926.09;5080966;28;20094;-82
2023/07/15 11:09:16;;;;;;;7.50;2.88;;;;;;;25.51;100.00;96920.81;5078463;28;20509;-83
2023/07/15 11:12:04;;;;;;;5.63;3.17;;;;;;;26.29;100.00;96908.81;5080580;28;20093;-83
2023/07/15 11:14:48;;;;;;;8.13;2.92;;;;;;;26.55;100.00;96910.16;5085885;28;20102;-81
2023/07/15 11:17:32;;;;;;;7.35;3.20;;;;;;;27.02;100.00;96926.44;5076398;28;20077;-81
2023/07/15 11:20:16;;;;;;;5.43;3.00;;;;;;;27.12;100.00;96930.47;5078758;28;20039;-82
2023/07/15 11:23:00;;;;;;;7.35;3.03;;;;;;;26.69;97.13;96951.91;5080551;28;20414;-83
2023/07/15 11:25:45;;;;;;;6.82;3.53;;;;;;;26.21;95.85;96963.56;5082535;28;20039;-81
2023/07/15 11:28:32;;;;;;;8.07;3.20;;;;;;;26.55;97.45;96963.16;5078842;28;20090;-83
2023/07/15 11:31:19;;;;;;;7.35;2.67;;;;;;;26.84;97.43;96966.47;5074776;28;20090;-82
2023/07/15 11:34:06;;;;;;;6.80;3.50;;;;;;;27.31;97.47;96959.28;5075720;28;20054;-83
2023/07/15 11:36:53;;;;;;;5.95;2.90;;;;;;;27.18;95.90;96967.53;5077354;28;20058;-84
2023/07/15 11:39:41;;;;;;;5.53;2.28;;;;;;;25.44;80.45;96977.00;5076621;28;20046;-83
2023/07/15 11:42:25;;;;;;;5.35;2.28;;;;;;;24.65;81.76;96971.00;5077801;28;20547;-83
2023/07/15 11:45:10;;;;;;;6.55;2.42;;;;;;;23.39;78.90;96970.47;5074918;28;20034;-84
2023/07/15 11:47:55;;;;;;;4.18;2.28;;;;;;;22.91;81.37;96954.63;5081227;28;20402;-83
2023/07/15 11:50:39;;;;;;;4.20;2.05;;;;;;;22.67;83.19;96964.09;5078804;28;20509;-82
2023/07/15 11:53:30;;;;;;;4.15;1.60;;;;;;;22.68;84.25;96984.38;5077577;28;20052;-83
2023/07/15 11:56:34;;;;;;;4.03;1.77;;;;;;;22.01;84.63;96980.59;5081587;28;20047;-83
2023/07/15 11:59:27;;;;;;;3.42;1.90;;;;;;;21.34;86.78;96967.56;5082376;28;20032;-83
2023/07/15 12:02:11;;;;;;;3.88;1.50;;;;;;;21.32;86.88;96967.88;5077127;28;20397;-84
2023/07/15 12:04:55;;;;;;;2.53;1.30;;;;;;;21.33;87.41;96977.47;5078550;28;20039;-83
2023/07/15 12:07:47;;;;;;;1.70;1.60;;;;;;;20.89;88.47;96985.47;5080385;28;20803;-83
2023/07/15 12:10:31;;;;;;;3.47;1.48;;;;;;;20.70;91.61;96975.06;5076782;28;20063;-84
2023/07/15 12:13:15;;;;;;;2.33;1.42;;;;;;;20.64;92.36;96971.78;5078692;28;20039;-86
2023/07/15 12:15:59;;;;;;;4.90;1.65;;;;;;;20.58;93.04;96962.34;5079212;28;20093;-84
2023/07/15 12:18:44;;;;;;;2.80;1.65;;;;;;;21.01;94.75;96957.38;5078743;28;20051;-82
2023/07/15 12:21:28;;;;;;;5.47;1.65;;;;;;;21.24;95.43;96950.78;5074721;28;20048;-84
2023/07/15 12:24:12;;;;;;;3.67;2.03;;;;;;;21.11;95.51;96938.41;5078630;28;20388;-84
2023/07/15 12:26:56;;;;;;;2.30;1.70;;;;;;;21.48;95.32;96930.81;5080722;28;20043;-83
2023/07/15 12:29:40;;;;;;;3.05;1.85;;;;;;;21.76;94.69;96930.41;5075490;28;20521;-83
2023/07/15 12:32:25;;;;;;;4.15;1.50;;;;;;;22.18;91.86;96926.28;5075134;28;20074;-83
2023/07/15 12:35:09;;;;;;;4.07;1.50;;;;;;;22.66;91.11;96914.38;5074497;28;20488;-84
2023/07/15 12:37:53;;;;;;;5.90;1.83;;;;;;;23.08;88.83;96905.53;5081393;28;20044;-83
2023/07/15 12:40:37;;;;;;;2.55;1.60;;;;;;;23.78;88.38;96908.59;5079100;28;20044;-84
2023/07/15 12:43:23;;;;;;;4.03;1.80;;;;;;;24.34;86.33;96905.34;5076279;28;20410;-85
2023/07/15 12:46:07;;;;;;;2.75;1.75;;;;;;;24.85;84.83;96908.69;5083432;28;20400;-85